Time;durP1;ratioP1;P1;durP2;ratioP2;P2;SDS_P1;SDS_P2;PMS_P1;PMS_P2;Temp;Humidity;BMP_temperature;BMP_pressure;BME280_temperature;BME280_humidity;BME280_pressure;Samples;Min_cycle;Max_cycle;Signal;HPM_P1;HPM_P2
2022/08/17 00:01:45;;;;;;;;;;;23.70;99.90;;;;;;8408165;28;19932;-69
2022/08/17 00:05:58;;;;;;;;;;;23.70;99.90;;;;;;8421233;28;19943;-69
2022/08/17 00:10:00;;;;;;;;;;;23.60;99.90;;;;;;8429910;28;19928;-70
2022/08/17 00:14:05;;;;;;;;;;;23.60;99.90;;;;;;8418149;28;19928;-70
2022/08/17 00:18:07;;;;;;;;;;;23.60;99.90;;;;;;8423142;28;19933;-70
2022/08/17 00:22:28;;;;;;;;;;;23.50;99.90;;;;;;8430316;28;19967;-70
2022/08/17 00:26:35;;;;;;;;;;;23.50;99.90;;;;;;8399131;28;19982;-70
2022/08/17 00:30:46;;;;;;;;;;;23.50;99.90;;;;;;8441046;27;19928;-70
2022/08/17 00:34:53;;;;;;;;;;;23.50;99.90;;;;;;8422826;28;19979;-70
2022/08/17 00:38:55;;;;;;;;;;;23.50;99.90;;;;;;8411543;28;19935;-69
2022/08/17 00:43:06;;;;;;;;;;;23.40;99.90;;;;;;8424706;28;19928;-70
2022/08/17 00:47:07;;;;;;;;;;;23.40;99.90;;;;;;8438002;28;19926;-70
2022/08/17 00:51:22;;;;;;;;;;;23.40;99.90;;;;;;8432203;28;19927;-70
2022/08/17 00:55:24;;;;;;;;;;;23.40;99.90;;;;;;8399868;28;19970;-70
2022/08/17 00:59:32;;;;;;;;;;;23.30;99.90;;;;;;8436581;28;19924;-70
2022/08/17 01:03:35;;;;;;;;;;;23.30;99.90;;;;;;8414751;28;19926;-70
2022/08/17 01:07:37;;;;;;;;;;;23.30;99.90;;;;;;8414120;28;19939;-70
2022/08/17 01:11:39;;;;;;;;;;;23.20;99.90;;;;;;8400352;28;20275;-70
2022/08/17 01:15:45;;;;;;;;;;;23.20;99.90;;;;;;8396046;28;19920;-69
2022/08/17 01:19:46;;;;;;;;;;;23.20;99.90;;;;;;8449859;28;19935;-70
2022/08/17 01:23:48;;;;;;;;;;;23.20;99.90;;;;;;8424173;28;19920;-69
2022/08/17 01:27:50;;;;;;;;;;;23.20;99.90;;;;;;8412095;28;19937;-69
2022/08/17 01:31:53;;;;;;;;;;;23.20;99.90;;;;;;8418893;28;19927;-69
2022/08/17 01:35:55;;;;;;;;;;;23.10;99.90;;;;;;8414032;28;19925;-70
2022/08/17 01:40:00;;;;;;;;;;;23.20;99.90;;;;;;8417842;28;19927;-70
2022/08/17 01:44:04;;;;;;;;;;;23.20;99.90;;;;;;8424060;28;20276;-70
2022/08/17 01:48:05;;;;;;;;;;;23.20;99.90;;;;;;8423539;28;19949;-69
2022/08/17 01:52:08;;;;;;;;;;;23.20;99.90;;;;;;8427051;28;19919;-70
2022/08/17 01:56:11;;;;;;;;;;;23.20;99.90;;;;;;8436169;28;19924;-69
2022/08/17 02:00:13;;;;;;;;;;;23.20;99.90;;;;;;8446738;28;19931;-70
2022/08/17 02:04:15;;;;;;;;;;;23.00;99.90;;;;;;8407496;28;20337;-70
2022/08/17 02:08:19;;;;;;;;;;;22.90;99.90;;;;;;8416355;28;20816;-70
2022/08/17 02:12:21;;;;;;;;;;;22.70;99.90;;;;;;8427732;28;20232;-70
2022/08/17 02:16:40;;;;;;;;;;;22.60;99.90;;;;;;8434136;28;20362;-70
2022/08/17 02:20:42;;;;;;;;;;;22.50;99.90;;;;;;8434195;28;19920;-70
2022/08/17 02:24:44;;;;;;;;;;;22.40;99.90;;;;;;8429865;28;19927;-70
2022/08/17 02:29:02;;;;;;;;;;;22.40;99.90;;;;;;8430134;28;20358;-70
2022/08/17 02:33:05;;;;;;;;;;;22.40;99.90;;;;;;8413827;28;20002;-70
2022/08/17 02:37:09;;;;;;;;;;;22.50;99.90;;;;;;8421461;28;19987;-70
2022/08/17 02:41:12;;;;;;;;;;;22.50;99.90;;;;;;8427648;28;19920;-70
2022/08/17 02:45:15;;;;;;;;;;;22.60;99.90;;;;;;8439515;28;19928;-70
2022/08/17 02:49:16;;;;;;;;;;;22.60;99.90;;;;;;8434388;28;19928;-70
2022/08/17 02:53:18;;;;;;;;;;;22.60;99.90;;;;;;8421603;28;19920;-70
2022/08/17 02:57:20;;;;;;;;;;;22.50;99.90;;;;;;8424429;28;20286;-70
2022/08/17 03:01:21;;;;;;;;;;;22.50;99.90;;;;;;8418205;28;19934;-70
2022/08/17 03:05:26;;;;;;;;;;;22.40;99.90;;;;;;8448389;28;20351;-70
2022/08/17 03:09:27;;;;;;;;;;;22.40;99.90;;;;;;8422268;28;19924;-70
2022/08/17 03:13:29;;;;;;;;;;;22.40;99.90;;;;;;8436959;28;19924;-70
2022/08/17 03:17:31;;;;;;;;;;;22.30;99.90;;;;;;8423979;28;19924;-70
2022/08/17 03:21:32;;;;;;;;;;;22.30;99.90;;;;;;8442407;28;19927;-70
2022/08/17 03:25:36;;;;;;;;;;;22.30;99.90;;;;;;8451915;28;19927;-70
2022/08/17 03:29:38;;;;;;;;;;;22.30;99.90;;;;;;8426826;28;19919;-70
2022/08/17 03:33:40;;;;;;;;;;;22.30;99.90;;;;;;8429773;28;19924;-70
2022/08/17 03:37:41;;;;;;;;;;;22.20;99.90;;;;;;8421237;28;19919;-70
2022/08/17 03:41:43;;;;;;;;;;;22.10;99.90;;;;;;8424938;28;20225;-70
2022/08/17 03:58:46;;;;;;;;;;;22.00;99.90;;;;;;8414075;28;20398;-70
2022/08/17 04:02:48;;;;;;;;;;;22.00;99.90;;;;;;8403885;28;19924;-70
2022/08/17 04:06:50;;;;;;;;;;;22.00;99.90;;;;;;8405842;28;19924;-70
2022/08/17 04:10:51;;;;;;;;;;;22.00;99.90;;;;;;8428764;28;19951;-70
2022/08/17 04:14:53;;;;;;;;;;;22.00;99.90;;;;;;8414549;28;19927;-70
2022/08/17 04:18:55;;;;;;;;;;;22.00;99.90;;;;;;8417671;28;19920;-70
2022/08/17 04:23:05;;;;;;;;;;;22.00;99.90;;;;;;8424883;28;19942;-70
2022/08/17 04:27:07;;;;;;;;;;;21.90;99.90;;;;;;8407936;28;20142;-70
2022/08/17 04:31:10;;;;;;;;;;;21.90;99.90;;;;;;8408575;28;19928;-70
2022/08/17 04:35:16;;;;;;;;;;;21.90;99.90;;;;;;8422002;28;20387;-70
2022/08/17 04:39:17;;;;;;;;;;;21.90;99.90;;;;;;8407728;28;20552;-70
2022/08/17 04:43:20;;;;;;;;;;;21.80;99.90;;;;;;8423464;28;19927;-70
2022/08/17 04:47:22;;;;;;;;;;;21.80;99.90;;;;;;8429859;28;19951;-70
2022/08/17 04:51:34;;;;;;;;;;;21.80;99.90;;;;;;8426537;28;20291;-70
2022/08/17 04:55:36;;;;;;;;;;;21.70;99.90;;;;;;8419860;28;19939;-70
2022/08/17 04:59:37;;;;;;;;;;;21.70;99.90;;;;;;8400774;28;20106;-70
2022/08/17 05:03:40;;;;;;;;;;;21.70;99.90;;;;;;8415372;28;19931;-70
2022/08/17 05:07:42;;;;;;;;;;;21.70;99.90;;;;;;8399917;28;19928;-70
2022/08/17 05:11:44;;;;;;;;;;;21.70;99.90;;;;;;8433557;28;20359;-70
2022/08/17 05:15:46;;;;;;;;;;;21.60;99.90;;;;;;8440995;28;19927;-70
2022/08/17 05:19:48;;;;;;;;;;;21.60;99.90;;;;;;8431912;28;19926;-70
2022/08/17 05:23:53;;;;;;;;;;;21.60;99.90;;;;;;8451672;28;19924;-70
2022/08/17 05:27:55;;;;;;;;;;;21.60;99.90;;;;;;8442635;28;19920;-70
2022/08/17 05:31:57;;;;;;;;;;;21.60;99.90;;;;;;8424429;28;19920;-70
2022/08/17 05:35:59;;;;;;;;;;;21.60;99.90;;;;;;8418285;28;19928;-70
2022/08/17 05:40:01;;;;;;;;;;;21.50;99.90;;;;;;8411502;28;19920;-70
2022/08/17 05:44:03;;;;;;;;;;;21.50;99.90;;;;;;8414259;28;20022;-70
2022/08/17 05:48:06;;;;;;;;;;;21.50;99.90;;;;;;8416282;28;20011;-70
2022/08/17 05:52:25;;;;;;;;;;;21.50;99.90;;;;;;8400350;28;19927;-70
2022/08/17 05:56:29;;;;;;;;;;;21.50;99.90;;;;;;8423596;28;19949;-70
2022/08/17 06:00:38;;;;;;;;;;;21.50;99.90;;;;;;8426060;28;19966;-70
2022/08/17 06:04:52;;;;;;;;;;;21.50;99.90;;;;;;8400340;28;20312;-69
2022/08/17 06:08:58;;;;;;;;;;;21.50;99.90;;;;;;8386770;28;19943;-70
2022/08/17 06:13:14;;;;;;;;;;;21.50;99.90;;;;;;8427668;28;20260;-70
2022/08/17 06:17:20;;;;;;;;;;;21.50;99.90;;;;;;8416636;28;19927;-70
2022/08/17 06:21:23;;;;;;;;;;;21.60;99.90;;;;;;8406814;28;19924;-70
2022/08/17 06:25:37;;;;;;;;;;;21.60;99.90;;;;;;8429637;28;20813;-70
2022/08/17 06:29:45;;;;;;;;;;;21.60;99.90;;;;;;8402770;28;20336;-70
2022/08/17 06:33:47;;;;;;;;;;;21.60;99.90;;;;;;8424456;28;19920;-70
2022/08/17 06:37:49;;;;;;;;;;;21.60;99.90;;;;;;8398122;28;19920;-70
2022/08/17 06:41:59;;;;;;;;;;;21.70;99.90;;;;;;8452596;28;19919;-70
2022/08/17 06:46:05;;;;;;;;;;;21.80;99.90;;;;;;8426622;28;19920;-70
2022/08/17 06:50:13;;;;;;;;;;;21.80;99.90;;;;;;8434767;28;19920;-70
2022/08/17 06:54:20;;;;;;;;;;;21.80;99.90;;;;;;8450662;28;19928;-70
2022/08/17 06:58:23;;;;;;;;;;;21.90;99.90;;;;;;8411843;28;19931;-70
2022/08/17 07:02:54;;;;;;;;;;;21.90;99.90;;;;;;8417617;28;20374;-70
2022/08/17 07:06:57;;;;;;;;;;;21.90;99.90;;;;;;8430783;28;20401;-70
2022/08/17 07:11:01;;;;;;;;;;;21.90;99.90;;;;;;8428585;28;19935;-71
2022/08/17 07:15:12;;;;;;;;;;;21.90;99.90;;;;;;8435019;28;19920;-70
2022/08/17 07:19:19;;;;;;;;;;;21.90;99.90;;;;;;8438653;28;19947;-70
2022/08/17 07:23:35;;;;;;;;;;;21.90;99.90;;;;;;8431592;28;19924;-70
2022/08/17 07:27:41;;;;;;;;;;;21.90;99.90;;;;;;8446220;28;19926;-70
2022/08/17 07:31:43;;;;;;;;;;;21.90;99.90;;;;;;8420561;28;20267;-71
2022/08/17 07:35:47;;;;;;;;;;;21.90;99.90;;;;;;8423482;28;20359;-70
2022/08/17 07:39:48;;;;;;;;;;;21.90;99.90;;;;;;8423263;28;19947;-70
2022/08/17 07:44:12;;;;;;;;;;;21.90;99.90;;;;;;8424428;28;20074;-71
2022/08/17 07:48:18;;;;;;;;;;;21.90;99.90;;;;;;8432562;28;20286;-70
2022/08/17 07:52:30;;;;;;;;;;;22.00;99.90;;;;;;8432964;28;19936;-70
2022/08/17 07:57:12;;;;;;;;;;;22.00;99.90;;;;;;8430698;28;19936;-70
2022/08/17 08:01:14;;;;;;;;;;;22.00;99.90;;;;;;8420785;28;19920;-70
2022/08/17 08:05:19;;;;;;;;;;;22.00;99.90;;;;;;8414839;28;19924;-70
2022/08/17 08:09:43;;;;;;;;;;;22.00;99.90;;;;;;8415329;28;19919;-70
2022/08/17 08:13:45;;;;;;;;;;;22.00;99.90;;;;;;8423667;28;19979;-71
2022/08/17 08:17:51;;;;;;;;;;;22.00;99.90;;;;;;8432771;28;20352;-70
2022/08/17 08:21:58;;;;;;;;;;;22.00;99.90;;;;;;8388783;28;20369;-70
2022/08/17 08:26:19;;;;;;;;;;;22.00;99.90;;;;;;8422243;28;19928;-70
2022/08/17 08:30:21;;;;;;;;;;;22.00;99.90;;;;;;8425369;28;19920;-69
2022/08/17 08:34:23;;;;;;;;;;;22.00;99.90;;;;;;8397654;28;20380;-70
2022/08/17 08:38:52;;;;;;;;;;;22.00;99.90;;;;;;8420590;28;20006;-70
2022/08/17 08:43:03;;;;;;;;;;;22.00;99.90;;;;;;8425503;28;20289;-70
2022/08/17 08:47:07;;;;;;;;;;;22.10;99.90;;;;;;8426597;28;19931;-70
2022/08/17 08:51:15;;;;;;;;;;;22.10;99.90;;;;;;8410053;27;20364;-70
2022/08/17 08:55:26;;;;;;;;;;;22.10;99.90;;;;;;8434063;28;20022;-70
2022/08/17 08:59:36;;;;;;;;;;;22.10;99.90;;;;;;8414107;28;19924;-70
2022/08/17 09:03:57;;;;;;;;;;;22.10;99.90;;;;;;8408206;28;20464;-70
2022/08/17 09:08:26;;;;;;;;;;;22.10;99.90;;;;;;8403820;28;19952;-71
2022/08/17 09:12:30;;;;;;;;;;;22.10;99.90;;;;;;8440860;28;19924;-70
2022/08/17 09:16:39;;;;;;;;;;;22.10;99.90;;;;;;8410050;28;20361;-70
2022/08/17 09:20:43;;;;;;;;;;;22.10;99.90;;;;;;8403324;28;19924;-70
2022/08/17 09:24:55;;;;;;;;;;;22.10;99.90;;;;;;8439243;28;19920;-70
2022/08/17 09:29:00;;;;;;;;;;;22.10;99.90;;;;;;8410577;28;19920;-70
2022/08/17 09:33:05;;;;;;;;;;;22.10;99.90;;;;;;8422315;28;19924;-70
2022/08/17 09:37:16;;;;;;;;;;;22.00;99.90;;;;;;8414789;28;20275;-70
2022/08/17 09:41:41;;;;;;;;;;;22.00;99.90;;;;;;8427594;28;19920;-70
2022/08/17 09:45:51;;;;;;;;;;;21.90;99.90;;;;;;8437891;28;20370;-70
2022/08/17 09:49:55;;;;;;;;;;;21.90;99.90;;;;;;8390751;28;19924;-70
2022/08/17 09:53:57;;;;;;;;;;;21.80;99.90;;;;;;8391153;28;19965;-70
2022/08/17 09:58:35;;;;;;;;;;;21.80;99.90;;;;;;8424532;28;19928;-70
2022/08/17 10:02:39;;;;;;;;;;;21.80;99.90;;;;;;8436518;28;19919;-70
2022/08/17 10:06:49;;;;;;;;;;;21.80;99.90;;;;;;8449470;28;19928;-70
2022/08/17 10:10:59;;;;;;;;;;;21.90;99.90;;;;;;8443830;28;19926;-70
2022/08/17 10:15:15;;;;;;;;;;;21.90;99.90;;;;;;8431072;28;19919;-70
2022/08/17 10:19:24;;;;;;;;;;;21.90;99.90;;;;;;8404807;28;19931;-70
2022/08/17 10:27:50;;;;;;;;;;;22.00;99.90;;;;;;8433065;28;19927;-70
2022/08/17 10:31:58;;;;;;;;;;;22.10;99.90;;;;;;8416919;28;20019;-69
2022/08/17 10:36:10;;;;;;;;;;;22.10;99.90;;;;;;8399414;28;20397;-70
2022/08/17 10:40:11;;;;;;;;;;;22.10;99.90;;;;;;8437910;27;19927;-70
2022/08/17 10:44:34;;;;;;;;;;;22.10;99.90;;;;;;8444124;28;19927;-70
2022/08/17 10:48:41;;;;;;;;;;;22.20;99.90;;;;;;8420720;28;19930;-70
2022/08/17 10:52:43;;;;;;;;;;;22.20;99.90;;;;;;8421103;28;19990;-69
2022/08/17 10:56:46;;;;;;;;;;;22.20;99.90;;;;;;8455058;28;19927;-70
2022/08/17 11:00:52;;;;;;;;;;;22.30;99.90;;;;;;8454013;28;19942;-70
2022/08/17 11:05:02;;;;;;;;;;;22.30;99.90;;;;;;8411692;28;20385;-70
2022/08/17 11:09:14;;;;;;;;;;;22.30;99.90;;;;;;8441749;28;19923;-70
2022/08/17 11:13:36;;;;;;;;;;;22.30;99.90;;;;;;8461484;28;20548;-70
2022/08/17 11:18:00;;;;;;;;;;;22.30;99.90;;;;;;8428506;28;19927;-70
2022/08/17 11:22:04;;;;;;;;;;;22.20;99.90;;;;;;8418137;28;20290;-70
2022/08/17 11:26:18;;;;;;;;;;;22.20;99.90;;;;;;8444094;28;19926;-70
2022/08/17 11:30:39;;;;;;;;;;;22.20;99.90;;;;;;8432392;28;19920;-70
2022/08/17 11:34:43;;;;;;;;;;;22.10;99.90;;;;;;8456347;28;19920;-70
2022/08/17 11:38:48;;;;;;;;;;;22.00;99.90;;;;;;8419179;28;19928;-70
2022/08/17 11:43:06;;;;;;;;;;;22.00;99.90;;;;;;8456259;28;19927;-70
2022/08/17 11:52:09;;;;;;;;;;;22.00;99.90;;;;;;8445783;28;19919;-70
2022/08/17 11:56:30;;;;;;;;;;;21.90;99.90;;;;;;8450229;28;19919;-69
2022/08/17 12:00:39;;;;;;;;;;;21.90;99.90;;;;;;8423302;28;20005;-70
2022/08/17 12:05:00;;;;;;;;;;;21.80;99.90;;;;;;8434964;28;19927;-70
2022/08/17 12:09:05;;;;;;;;;;;21.70;99.90;;;;;;8447298;28;19927;-70
2022/08/17 12:13:12;;;;;;;;;;;21.70;99.90;;;;;;8452580;28;20311;-70
2022/08/17 12:17:19;;;;;;;;;;;21.70;99.90;;;;;;8446829;28;19924;-70
2022/08/17 12:21:25;;;;;;;;;;;21.60;99.90;;;;;;8450492;28;20315;-70
2022/08/17 12:25:46;;;;;;;;;;;21.70;99.90;;;;;;8456400;28;20278;-70
2022/08/17 12:29:47;;;;;;;;;;;21.70;99.90;;;;;;8426418;28;20306;-70
2022/08/17 12:33:50;;;;;;;;;;;21.60;99.90;;;;;;8443897;28;19919;-70
2022/08/17 12:37:52;;;;;;;;;;;21.60;99.90;;;;;;8429085;28;19971;-70
2022/08/17 12:41:56;;;;;;;;;;;21.70;99.90;;;;;;8461064;27;19923;-70
2022/08/17 12:46:02;;;;;;;;;;;21.70;99.90;;;;;;8435953;28;19920;-70
2022/08/17 12:50:14;;;;;;;;;;;21.60;99.90;;;;;;8450317;28;19955;-70
2022/08/17 12:54:48;;;;;;;;;;;21.70;99.90;;;;;;8451457;28;20358;-70
2022/08/17 12:58:52;;;;;;;;;;;21.60;99.90;;;;;;8419083;28;19935;-70
2022/08/17 13:03:11;;;;;;;;;;;21.60;99.90;;;;;;8443088;28;19946;-70
2022/08/17 13:07:25;;;;;;;;;;;21.70;99.90;;;;;;8421308;28;19923;-70
2022/08/17 13:11:27;;;;;;;;;;;21.70;99.90;;;;;;8410486;28;20389;-70
2022/08/17 13:15:40;;;;;;;;;;;21.70;99.90;;;;;;8440580;28;20279;-70
2022/08/17 13:19:48;;;;;;;;;;;21.70;99.90;;;;;;8443650;28;19920;-70
2022/08/17 13:23:52;;;;;;;;;;;21.70;99.90;;;;;;8432482;28;20294;-70
2022/08/17 13:27:54;;;;;;;;;;;21.70;99.90;;;;;;8458043;27;20023;-70
2022/08/17 13:32:05;;;;;;;;;;;21.70;99.90;;;;;;8434113;28;19927;-70
2022/08/17 13:36:24;;;;;;;;;;;21.70;99.90;;;;;;8424136;28;19924;-70
2022/08/17 13:40:31;;;;;;;;;;;21.70;99.90;;;;;;8432177;28;19973;-70
2022/08/17 13:44:36;;;;;;;;;;;21.70;99.90;;;;;;8433763;28;19919;-70
2022/08/17 13:48:37;;;;;;;;;;;21.70;99.90;;;;;;8422972;28;19920;-70
2022/08/17 13:52:41;;;;;;;;;;;21.70;99.90;;;;;;8458756;28;19938;-70
2022/08/17 13:56:49;;;;;;;;;;;21.70;99.90;;;;;;8436404;28;20201;-70
2022/08/17 14:00:51;;;;;;;;;;;21.70;99.90;;;;;;8450285;28;19926;-70
2022/08/17 14:04:53;;;;;;;;;;;21.70;99.90;;;;;;8418819;28;19928;-70
2022/08/17 14:08:54;;;;;;;;;;;21.70;99.90;;;;;;8424644;28;20367;-70
2022/08/17 14:12:56;;;;;;;;;;;21.80;99.90;;;;;;8455020;28;19927;-69
2022/08/17 14:16:58;;;;;;;;;;;21.80;99.90;;;;;;8443828;28;19975;-69
2022/08/17 14:21:00;;;;;;;;;;;21.90;99.90;;;;;;8429297;28;20372;-70
2022/08/17 14:25:02;;;;;;;;;;;21.90;99.90;;;;;;8432899;28;20355;-70
2022/08/17 14:29:04;;;;;;;;;;;21.90;99.90;;;;;;8440130;28;19920;-70
2022/08/17 14:33:07;;;;;;;;;;;22.00;99.90;;;;;;8438673;28;19942;-70
2022/08/17 14:37:08;;;;;;;;;;;22.00;99.90;;;;;;8376408;28;19927;-70
2022/08/17 14:41:10;;;;;;;;;;;22.10;99.90;;;;;;8429609;28;19939;-70
2022/08/17 14:45:12;;;;;;;;;;;22.20;99.90;;;;;;8413801;28;19923;-70
2022/08/17 14:49:32;;;;;;;;;;;22.30;99.90;;;;;;8433982;28;19924;-69
2022/08/17 14:53:35;;;;;;;;;;;22.40;99.90;;;;;;8440128;28;19928;-70
2022/08/17 14:57:38;;;;;;;;;;;22.40;99.90;;;;;;8385420;28;1732791;-70
2022/08/17 15:01:40;;;;;;;;;;;22.50;99.90;;;;;;8420147;28;19923;-70
2022/08/17 15:05:44;;;;;;;;;;;22.50;99.90;;;;;;8420251;28;19925;-70
2022/08/17 15:09:45;;;;;;;;;;;22.60;99.90;;;;;;8437197;28;19927;-70
2022/08/17 15:13:48;;;;;;;;;;;22.60;99.90;;;;;;8437261;28;20382;-70
2022/08/17 15:17:53;;;;;;;;;;;22.60;99.90;;;;;;8417034;28;19928;-70
2022/08/17 15:21:54;;;;;;;;;;;22.60;99.90;;;;;;8455317;28;20314;-70
2022/08/17 15:25:56;;;;;;;;;;;22.70;99.90;;;;;;8429194;28;19924;-70
2022/08/17 15:29:57;;;;;;;;;;;22.80;99.90;;;;;;8406742;28;19924;-70
2022/08/17 15:33:59;;;;;;;;;;;22.90;99.90;;;;;;8428361;28;19928;-70
2022/08/17 15:38:03;;;;;;;;;;;23.00;99.90;;;;;;8419740;28;19924;-70
2022/08/17 15:42:11;;;;;;;;;;;23.10;99.90;;;;;;8417488;28;20073;-70
2022/08/17 15:46:16;;;;;;;;;;;23.00;99.90;;;;;;8430357;28;20272;-70
2022/08/17 15:50:17;;;;;;;;;;;23.00;99.90;;;;;;8434539;28;19931;-70
2022/08/17 15:54:19;;;;;;;;;;;23.00;99.90;;;;;;8436955;28;19928;-70
2022/08/17 15:58:23;;;;;;;;;;;23.00;99.90;;;;;;8410174;28;20002;-70
2022/08/17 16:02:33;;;;;;;;;;;22.90;99.90;;;;;;8419606;28;19924;-70
2022/08/17 16:06:54;;;;;;;;;;;22.90;99.90;;;;;;8415188;28;19992;-70
2022/08/17 16:10:59;;;;;;;;;;;22.80;99.90;;;;;;8422637;28;19954;-70
2022/08/17 16:15:01;;;;;;;;;;;22.80;99.90;;;;;;8392645;28;19936;-70
2022/08/17 16:19:03;;;;;;;;;;;22.80;99.90;;;;;;8391661;28;19924;-70
2022/08/17 16:23:04;;;;;;;;;;;22.80;99.90;;;;;;8393979;28;19951;-70
2022/08/17 16:27:06;;;;;;;;;;;22.80;99.90;;;;;;8386713;28;19940;-70
2022/08/17 16:31:13;;;;;;;;;;;22.70;99.90;;;;;;8389433;28;19935;-70
2022/08/17 16:35:15;;;;;;;;;;;22.70;99.90;;;;;;8388721;28;19932;-70
2022/08/17 16:39:17;;;;;;;;;;;22.70;99.90;;;;;;8390045;28;19928;-70
2022/08/17 16:43:19;;;;;;;;;;;22.80;99.90;;;;;;8390338;28;19928;-70
2022/08/17 16:47:21;;;;;;;;;;;22.80;99.90;;;;;;8403320;28;19931;-70
2022/08/17 16:51:23;;;;;;;;;;;22.80;99.90;;;;;;8387538;28;19943;-70
2022/08/17 16:55:25;;;;;;;;;;;22.80;99.90;;;;;;8389673;28;19935;-70
2022/08/17 16:59:27;;;;;;;;;;;22.80;99.90;;;;;;8394492;28;20372;-70
2022/08/17 17:03:32;;;;;;;;;;;22.80;99.90;;;;;;8390416;28;19997;-70
2022/08/17 17:07:49;;;;;;;;;;;22.70;99.90;;;;;;8384635;28;19928;-70
2022/08/17 17:11:53;;;;;;;;;;;22.70;99.90;;;;;;8392335;28;20024;-70
2022/08/17 17:16:04;;;;;;;;;;;22.70;99.90;;;;;;8379689;28;20292;-70
2022/08/17 17:20:12;;;;;;;;;;;22.80;99.90;;;;;;8385257;28;19939;-70
2022/08/17 17:24:17;;;;;;;;;;;22.70;99.90;;;;;;8390311;28;19939;-70
2022/08/17 17:28:25;;;;;;;;;;;22.70;99.90;;;;;;8386127;28;19931;-70
2022/08/17 17:32:30;;;;;;;;;;;22.70;99.90;;;;;;8385314;28;19928;-70
2022/08/17 17:36:38;;;;;;;;;;;22.70;99.90;;;;;;8388789;28;19975;-70
2022/08/17 17:40:42;;;;;;;;;;;22.70;99.90;;;;;;8390726;28;19925;-70
2022/08/17 17:44:47;;;;;;;;;;;22.70;99.90;;;;;;8384148;28;19947;-70
2022/08/17 17:48:48;;;;;;;;;;;22.60;99.90;;;;;;8370885;28;19925;-70
2022/08/17 17:52:54;;;;;;;;;;;22.60;99.90;;;;;;8407841;28;19956;-70
2022/08/17 17:57:09;;;;;;;;;;;22.60;99.90;;;;;;8375930;28;19929;-70
2022/08/17 18:01:11;;;;;;;;;;;22.60;99.90;;;;;;8388525;28;22684;-70
2022/08/17 18:05:33;;;;;;;;;;;22.60;99.90;;;;;;8389794;28;19928;-70
2022/08/17 18:09:59;;;;;;;;;;;22.60;99.90;;;;;;8401025;28;19982;-70
2022/08/17 18:14:17;;;;;;;;;;;22.50;99.90;;;;;;8392305;28;20259;-70
2022/08/17 18:18:31;;;;;;;;;;;22.50;99.90;;;;;;8377484;28;20453;-70
2022/08/17 18:22:33;;;;;;;;;;;22.40;99.90;;;;;;8394360;28;19940;-70
2022/08/17 18:26:38;;;;;;;;;;;22.40;99.90;;;;;;8377433;28;19932;-70
2022/08/17 18:30:39;;;;;;;;;;;22.40;99.90;;;;;;8395704;28;20402;-70
2022/08/17 18:34:41;;;;;;;;;;;22.30;99.90;;;;;;8392462;28;20039;-70
2022/08/17 18:38:49;;;;;;;;;;;22.20;99.90;;;;;;8394344;28;19990;-70
2022/08/17 18:42:53;;;;;;;;;;;22.10;99.90;;;;;;8394207;28;19924;-70
2022/08/17 18:47:10;;;;;;;;;;;22.00;99.90;;;;;;8405370;28;19924;-70
2022/08/17 18:51:30;;;;;;;;;;;21.80;99.90;;;;;;8393871;28;19932;-69
2022/08/17 18:55:40;;;;;;;;;;;21.70;99.90;;;;;;8389879;28;19925;-70
2022/08/17 18:59:43;;;;;;;;;;;21.70;99.90;;;;;;8387571;28;19948;-69
2022/08/17 19:03:45;;;;;;;;;;;21.60;99.90;;;;;;8389413;28;19933;-70
2022/08/17 19:07:47;;;;;;;;;;;21.60;99.90;;;;;;8388986;28;20286;-70
2022/08/17 19:11:48;;;;;;;;;;;21.60;99.90;;;;;;8389361;28;20430;-70
2022/08/17 19:15:53;;;;;;;;;;;21.60;99.90;;;;;;8387736;28;19981;-70
2022/08/17 19:20:13;;;;;;;;;;;21.60;99.90;;;;;;8397791;28;19932;-69
2022/08/17 19:24:18;;;;;;;;;;;21.60;99.90;;;;;;8391423;28;19932;-70
2022/08/17 19:28:23;;;;;;;;;;;21.50;99.90;;;;;;8394345;28;19931;-70
2022/08/17 19:32:26;;;;;;;;;;;21.50;99.90;;;;;;8391804;28;19925;-70
2022/08/17 19:36:46;;;;;;;;;;;21.40;99.90;;;;;;8391107;28;19939;-70
2022/08/17 19:40:59;;;;;;;;;;;21.40;99.90;;;;;;8375788;28;19928;-70
2022/08/17 19:45:06;;;;;;;;;;;21.30;99.90;;;;;;8392835;28;20011;-70
2022/08/17 19:49:27;;;;;;;;;;;21.30;99.90;;;;;;8391928;28;20668;-69
2022/08/17 19:53:33;;;;;;;;;;;21.30;99.90;;;;;;8387892;28;19962;-69
2022/08/17 19:58:00;;;;;;;;;;;21.30;99.90;;;;;;8389818;28;19974;-70
2022/08/17 20:02:18;;;;;;;;;;;21.30;99.90;;;;;;8397413;28;19947;-70
2022/08/17 20:06:21;;;;;;;;;;;21.30;99.90;;;;;;8385027;28;19994;-70
2022/08/17 20:10:28;;;;;;;;;;;21.30;99.90;;;;;;8386134;28;19928;-70
2022/08/17 20:14:34;;;;;;;;;;;21.30;99.90;;;;;;8384208;28;19935;-70
2022/08/17 20:18:41;;;;;;;;;;;21.30;99.90;;;;;;8386976;28;20296;-70
2022/08/17 20:22:50;;;;;;;;;;;21.30;99.90;;;;;;8390851;28;19924;-70
2022/08/17 20:27:08;;;;;;;;;;;21.30;99.90;;;;;;8382509;28;19946;-70
2022/08/17 20:31:29;;;;;;;;;;;21.30;99.90;;;;;;8389667;28;19960;-70
2022/08/17 20:35:32;;;;;;;;;;;21.30;99.90;;;;;;8385018;28;20409;-70
2022/08/17 20:39:34;;;;;;;;;;;21.30;99.90;;;;;;8386791;28;19932;-70
2022/08/17 20:43:36;;;;;;;;;;;21.30;99.90;;;;;;8378149;28;20449;-70
2022/08/17 20:47:49;;;;;;;;;;;21.30;99.90;;;;;;8404494;27;19936;-70
2022/08/17 20:52:12;;;;;;;;;;;21.30;99.90;;;;;;8388262;28;20406;-70
2022/08/17 20:56:32;;;;;;;;;;;21.30;99.90;;;;;;8387378;28;19939;-69
2022/08/17 21:00:39;;;;;;;;;;;21.30;99.90;;;;;;8393967;28;19924;-70
2022/08/17 21:04:42;;;;;;;;;;;21.30;99.90;;;;;;8413667;28;19981;-70
2022/08/17 21:09:17;;;;;;;;;;;21.30;99.90;;;;;;8416892;28;19931;-70
2022/08/17 21:13:20;;;;;;;;;;;21.30;99.90;;;;;;8367234;28;19924;-70
2022/08/17 21:17:31;;;;;;;;;;;21.30;99.90;;;;;;8431001;28;19924;-70
2022/08/17 21:21:36;;;;;;;;;;;21.30;99.90;;;;;;8395252;28;19931;-70
2022/08/17 21:25:47;;;;;;;;;;;21.30;99.90;;;;;;8424961;28;19928;-70
2022/08/17 21:30:09;;;;;;;;;;;21.20;99.90;;;;;;8421202;28;19931;-69
2022/08/17 21:34:15;;;;;;;;;;;21.20;99.90;;;;;;8388704;28;20137;-70
2022/08/17 21:38:19;;;;;;;;;;;21.10;99.90;;;;;;8415004;28;19932;-70
2022/08/17 21:42:27;;;;;;;;;;;21.10;99.90;;;;;;8427137;28;19935;-70
2022/08/17 21:46:35;;;;;;;;;;;21.10;99.90;;;;;;8419493;28;19940;-70
2022/08/17 21:50:39;;;;;;;;;;;21.10;99.90;;;;;;8423855;28;19932;-70
2022/08/17 21:54:46;;;;;;;;;;;21.10;99.90;;;;;;8415609;28;19931;-69
2022/08/17 21:58:53;;;;;;;;;;;21.10;99.90;;;;;;8427048;28;19936;-70
2022/08/17 22:02:58;;;;;;;;;;;21.20;99.90;;;;;;8425669;28;19928;-70
2022/08/17 22:07:01;;;;;;;;;;;21.20;99.90;;;;;;8426056;28;19935;-70
2022/08/17 22:11:03;;;;;;;;;;;21.20;99.90;;;;;;8385638;28;20346;-70
2022/08/17 22:15:06;;;;;;;;;;;21.10;99.90;;;;;;8408415;28;19924;-70
2022/08/17 22:19:08;;;;;;;;;;;21.10;99.90;;;;;;8431445;28;19969;-69
2022/08/17 22:28:04;;;;;;;;;;;21.00;99.90;;;;;;8430525;28;19932;-70
2022/08/17 22:32:06;;;;;;;;;;;21.00;99.90;;;;;;8389611;28;19986;-70
2022/08/17 22:36:24;;;;;;;;;;;20.90;99.90;;;;;;8404993;28;19928;-70
2022/08/17 22:40:29;;;;;;;;;;;20.90;99.90;;;;;;8413940;28;19924;-69
2022/08/17 22:44:36;;;;;;;;;;;20.90;99.90;;;;;;8406700;28;20382;-69
2022/08/17 22:48:44;;;;;;;;;;;20.90;99.90;;;;;;8440452;28;19927;-69
2022/08/17 23:01:37;;;;;;;;;;;20.70;99.90;;;;;;8404026;28;19925;-70
2022/08/17 23:05:43;;;;;;;;;;;20.70;99.90;;;;;;8408670;28;19931;-70
2022/08/17 23:09:45;;;;;;;;;;;20.60;99.90;;;;;;8417802;28;19947;-70
2022/08/17 23:13:47;;;;;;;;;;;20.60;99.90;;;;;;8401850;28;20357;-70
2022/08/17 23:17:48;;;;;;;;;;;20.60;99.90;;;;;;8418892;28;19931;-70
2022/08/17 23:21:51;;;;;;;;;;;20.60;99.90;;;;;;8405095;28;20015;-70
2022/08/17 23:25:53;;;;;;;;;;;20.60;99.90;;;;;;8419203;28;19924;-70
2022/08/17 23:29:55;;;;;;;;;;;20.60;99.90;;;;;;8410818;28;20162;-70
2022/08/17 23:33:57;;;;;;;;;;;20.60;99.90;;;;;;8423919;28;22330;-69
2022/08/17 23:38:01;;;;;;;;;;;20.60;99.90;;;;;;8412695;28;20392;-70
2022/08/17 23:42:06;;;;;;;;;;;20.50;99.90;;;;;;8385011;28;20552;-70
2022/08/17 23:46:08;;;;;;;;;;;20.50;99.90;;;;;;8419588;28;19935;-69
2022/08/17 23:50:09;;;;;;;;;;;20.50;99.90;;;;;;8417468;28;20504;-70
2022/08/17 23:54:16;;;;;;;;;;;20.50;99.90;;;;;;8405958;28;20398;-69
2022/08/17 23:58:18;;;;;;;;;;;20.40;99.90;;;;;;8414932;28;19984;-70
